Time,TemperatureF,DewpointF,PressureIn,WindDirection,WindDirectionDegrees,WindSpeedMPH,WindSpeedGustMPH,Humidity,HourlyPrecipIn,Conditions,Clouds,dailyrainin,SoftwareType,DateUTC
2013-10-16 00:00:00,50.8,49.7,30.01,NNE,16,7.0,7.0,96,0.07,,,1.40,Wunderground v.1.15,2013-10-16 05:00:00,
2013-10-16 00:10:00,50.8,49.7,30.03,NNE,24,5.0,5.0,96,0.12,,,1.42,Wunderground v.1.15,2013-10-16 05:10:00,
2013-10-16 00:20:00,50.7,49.6,30.02,North,5,4.0,6.0,96,0.28,,,0.01,Wunderground v.1.15,2013-10-16 05:20:00,
2013-10-16 00:30:00,50.6,49.5,30.02,North,5,4.0,6.0,96,0.09,,,0.03,Wunderground v.1.15,2013-10-16 05:30:00,
2013-10-16 00:40:00,50.8,50.0,30.03,North,9,5.0,5.0,97,0.09,,,0.05,Wunderground v.1.15,2013-10-16 05:40:00,
2013-10-16 00:50:00,50.7,49.9,30.02,North,5,3.0,5.0,97,0.07,,,0.06,Wunderground v.1.15,2013-10-16 05:50:00,
2013-10-16 01:00:00,50.6,49.8,30.01,NNE,22,5.0,8.0,97,0.35,,,0.09,Wunderground v.1.15,2013-10-16 06:00:00,
2013-10-16 01:10:00,50.5,49.4,30.01,North,355,6.0,7.0,96,0.15,,,0.14,Wunderground v.1.15,2013-10-16 06:10:00,
2013-10-16 01:20:00,50.6,49.8,30.03,North,355,3.0,3.0,97,0.13,,,0.16,Wunderground v.1.15,2013-10-16 06:20:00,
2013-10-16 01:30:00,50.6,49.8,30.00,North,10,5.0,6.0,97,0.09,,,0.18,Wunderground v.1.15,2013-10-16 06:30:00,
2013-10-16 01:40:00,50.5,49.7,30.02,NNW,347,5.0,5.0,97,0.07,,,0.19,Wunderground v.1.15,2013-10-16 06:40:00,
2013-10-16 01:50:00,50.4,49.6,30.03,NNW,329,3.0,4.0,97,0.05,,,0.20,Wunderground v.1.15,2013-10-16 06:50:00,
2013-10-16 02:00:00,50.2,49.4,30.02,NNE,16,5.0,6.0,97,0.07,,,0.21,Wunderground v.1.15,2013-10-16 07:00:00,
2013-10-16 02:10:00,50.1,49.3,30.01,North,10,7.0,7.0,97,0.00,,,0.21,Wunderground v.1.15,2013-10-16 07:10:00,
2013-10-16 02:20:00,50.1,49.3,30.01,NNE,15,6.0,6.0,97,0.09,,,0.23,Wunderground v.1.15,2013-10-16 07:20:00,
2013-10-16 02:30:00,50.1,49.3,30.01,NNE,15,5.0,5.0,97,0.07,,,0.24,Wunderground v.1.15,2013-10-16 07:30:00,
2013-10-16 02:40:00,50.0,49.2,30.02,North,360,5.0,5.0,97,0.06,,,0.25,Wunderground v.1.15,2013-10-16 07:40:00,
2013-10-16 02:50:00,50.1,49.3,30.01,North,360,6.0,6.0,97,0.12,,,0.27,Wunderground v.1.15,2013-10-16 07:50:00,
2013-10-16 03:00:00,50.0,49.2,30.01,NNE,23,5.0,5.0,97,0.16,,,0.29,Wunderground v.1.15,2013-10-16 08:00:00,
2013-10-16 03:10:00,50.1,49.3,30.01,NE,34,6.0,6.0,97,0.18,,,0.31,Wunderground v.1.15,2013-10-16 08:10:00,
2013-10-16 03:20:00,50.1,49.3,30.02,NNE,29,4.0,4.0,97,0.07,,,0.32,Wunderground v.1.15,2013-10-16 08:20:00,
2013-10-16 03:30:00,50.1,49.3,30.01,NNE,30,6.0,6.0,97,0.05,,,0.33,Wunderground v.1.15,2013-10-16 08:30:00,
2013-10-16 03:40:00,50.0,49.2,30.02,NNE,19,5.0,5.0,97,0.05,,,0.34,Wunderground v.1.15,2013-10-16 08:40:00,
2013-10-16 03:50:00,50.0,49.2,30.01,NNE,19,4.0,6.0,97,0.05,,,0.34,Wunderground v.1.15,2013-10-16 08:50:00,
2013-10-16 04:00:00,50.0,49.2,30.01,North,9,5.0,5.0,97,0.04,,,0.35,Wunderground v.1.15,2013-10-16 09:00:00,
2013-10-16 04:10:00,50.1,49.0,30.01,NNE,17,5.0,5.0,96,0.04,,,0.35,Wunderground v.1.15,2013-10-16 09:10:00,
2013-10-16 04:20:00,50.2,49.1,30.03,North,9,2.0,3.0,96,0.00,,,0.35,Wunderground v.1.15,2013-10-16 09:20:00,
2013-10-16 04:30:00,50.3,49.2,30.02,North,9,2.0,2.0,96,0.00,,,0.35,Wunderground v.1.15,2013-10-16 09:30:00,
2013-10-16 04:40:00,50.3,49.2,30.02,North,9,1.0,1.0,96,0.00,,,0.36,Wunderground v.1.15,2013-10-16 09:40:00,
2013-10-16 04:50:00,50.4,49.3,30.03,North,9,0.0,1.0,96,0.00,,,0.36,Wunderground v.1.15,2013-10-16 09:50:00,
2013-10-16 05:00:00,50.5,49.4,30.03,North,9,0.0,1.0,96,0.00,,,0.36,Wunderground v.1.15,2013-10-16 10:00:00,
2013-10-16 05:10:00,50.6,49.5,30.03,North,9,0.0,1.0,96,0.00,,,0.36,Wunderground v.1.15,2013-10-16 10:10:00,
2013-10-16 05:20:00,50.7,49.9,30.04,North,360,0.0,1.0,97,0.00,,,0.36,Wunderground v.1.15,2013-10-16 10:20:00,
2013-10-16 05:30:00,50.7,49.9,30.04,North,360,0.0,1.0,97,0.00,,,0.36,Wunderground v.1.15,2013-10-16 10:30:00,
2013-10-16 05:40:00,50.8,50.0,30.03,North,360,0.0,1.0,97,0.00,,,0.36,Wunderground v.1.15,2013-10-16 10:40:00,
2013-10-16 05:50:00,50.8,50.0,30.04,North,360,1.0,4.0,97,0.00,,,0.37,Wunderground v.1.15,2013-10-16 10:50:00,
2013-10-16 06:00:00,50.8,50.0,30.03,NNW,348,4.0,7.0,97,0.00,,,0.37,Wunderground v.1.15,2013-10-16 11:00:00,
2013-10-16 06:10:00,50.8,50.0,30.04,NNE,17,5.0,5.0,97,0.00,,,0.37,Wunderground v.1.15,2013-10-16 11:10:00,
2013-10-16 06:20:00,50.6,49.8,30.03,North,360,6.0,6.0,97,0.00,,,0.37,Wunderground v.1.15,2013-10-16 11:20:00,
2013-10-16 06:30:00,50.6,49.8,30.04,North,5,5.0,5.0,97,0.00,,,0.37,Wunderground v.1.15,2013-10-16 11:30:00,
2013-10-16 06:40:00,50.7,49.9,30.04,North,11,5.0,5.0,97,0.00,,,0.37,Wunderground v.1.15,2013-10-16 11:40:00,
2013-10-16 06:50:00,50.6,49.8,30.04,North,9,4.0,7.0,97,0.00,,,0.37,Wunderground v.1.15,2013-10-16 11:50:00,
2013-10-16 07:00:00,50.7,49.6,30.04,North,355,5.0,5.0,96,0.00,,,0.37,Wunderground v.1.15,2013-10-16 12:00:00,
2013-10-16 07:10:00,50.7,49.6,30.04,NNE,24,5.0,5.0,96,0.00,,,0.37,Wunderground v.1.15,2013-10-16 12:10:00,
2013-10-16 07:20:00,50.8,49.7,30.05,NNE,15,4.0,4.0,96,0.00,,,0.37,Wunderground v.1.15,2013-10-16 12:20:00,
2013-10-16 07:30:00,50.8,49.7,30.06,NNE,15,3.0,5.0,96,0.00,,,0.37,Wunderground v.1.15,2013-10-16 12:30:00,
2013-10-16 07:40:00,50.9,49.8,30.05,North,10,3.0,3.0,96,0.00,,,0.37,Wunderground v.1.15,2013-10-16 12:40:00,
2013-10-16 07:50:00,51.0,49.9,30.06,North,10,1.0,1.0,96,0.00,,,0.37,Wunderground v.1.15,2013-10-16 12:50:00,
2013-10-16 08:00:00,51.1,50.0,30.07,North,9,0.0,1.0,96,0.00,,,0.37,Wunderground v.1.15,2013-10-16 13:00:00,
2013-10-16 08:10:00,51.1,50.0,30.07,North,10,0.0,1.0,96,0.00,,,0.37,Wunderground v.1.15,2013-10-16 13:10:00,
2013-10-16 08:20:00,51.2,50.1,30.08,North,10,0.0,1.0,96,0.00,,,0.37,Wunderground v.1.15,2013-10-16 13:20:00,
2013-10-16 08:30:00,51.3,50.2,30.08,North,10,0.0,1.0,96,0.00,,,0.37,Wunderground v.1.15,2013-10-16 13:30:00,
2013-10-16 08:40:00,51.5,50.4,30.07,North,10,0.0,1.0,96,0.00,,,0.37,Wunderground v.1.15,2013-10-16 13:40:00,
2013-10-16 08:50:00,51.7,50.3,30.08,North,10,0.0,1.0,95,0.00,,,0.37,Wunderground v.1.15,2013-10-16 13:50:00,
2013-10-16 09:00:00,51.8,50.4,30.09,North,10,0.0,1.0,95,0.00,,,0.37,Wunderground v.1.15,2013-10-16 14:00:00,
2013-10-16 09:10:00,52.0,50.6,30.08,North,10,0.0,1.0,95,0.00,,,0.37,Wunderground v.1.15,2013-10-16 14:10:00,
2013-10-16 09:20:00,52.3,50.9,30.09,North,10,0.0,1.0,95,0.00,,,0.37,Wunderground v.1.15,2013-10-16 14:20:00,
2013-10-16 09:30:00,52.7,51.3,30.09,North,10,0.0,1.0,95,0.00,,,0.37,Wunderground v.1.15,2013-10-16 14:30:00,
2013-10-16 09:40:00,53.1,51.7,30.09,North,5,2.0,5.0,95,0.00,,,0.37,Wunderground v.1.15,2013-10-16 14:40:00,
2013-10-16 09:50:00,53.5,51.5,30.09,North,9,4.0,4.0,93,0.00,,,0.37,Wunderground v.1.15,2013-10-16 14:50:00,
2013-10-16 10:00:00,53.8,51.5,30.10,North,355,2.0,2.0,92,0.00,,,0.37,Wunderground v.1.15,2013-10-16 15:00:00,
2013-10-16 10:10:00,54.1,51.8,30.09,North,355,0.0,1.0,92,0.00,,,0.37,Wunderground v.1.15,2013-10-16 15:10:00,
2013-10-16 10:20:00,54.4,51.8,30.10,North,355,0.0,1.0,91,0.00,,,0.37,Wunderground v.1.15,2013-10-16 15:20:00,
2013-10-16 10:30:00,54.7,52.1,30.10,NNE,13,0.0,1.0,91,0.00,,,0.37,Wunderground v.1.15,2013-10-16 15:30:00,
2013-10-16 10:40:00,54.8,51.6,30.10,NNE,24,5.0,5.0,89,0.00,,,0.37,Wunderground v.1.15,2013-10-16 15:40:00,
2013-10-16 10:50:00,55.0,51.2,30.10,NNE,31,7.0,7.0,87,0.00,,,0.37,Wunderground v.1.15,2013-10-16 15:50:00,
2013-10-16 11:00:00,55.3,51.5,30.10,NNE,24,6.0,6.0,87,0.00,,,0.37,Wunderground v.1.15,2013-10-16 16:00:00,
2013-10-16 11:10:00,55.6,51.8,30.11,NNE,13,5.0,5.0,87,0.00,,,0.37,Wunderground v.1.15,2013-10-16 16:10:00,
2013-10-16 11:20:00,55.8,51.4,30.11,NNE,19,6.0,6.0,85,0.00,,,0.37,Wunderground v.1.15,2013-10-16 16:20:00,
2013-10-16 11:30:00,56.1,51.0,30.11,North,9,7.0,10.0,83,0.00,,,0.37,Wunderground v.1.15,2013-10-16 16:30:00,
2013-10-16 11:40:00,56.5,51.1,30.10,North,5,8.0,8.0,82,0.00,,,0.37,Wunderground v.1.15,2013-10-16 16:40:00,
2013-10-16 11:50:00,56.9,50.8,30.10,NNE,25,9.0,9.0,80,0.00,,,0.37,Wunderground v.1.15,2013-10-16 16:50:00,
2013-10-16 12:00:00,57.7,51.6,30.10,NNE,32,8.0,9.0,80,0.00,,,0.37,Wunderground v.1.15,2013-10-16 17:00:00,
2013-10-16 12:10:00,58.1,50.6,30.09,NE,36,11.0,11.0,76,0.00,,,0.37,Wunderground v.1.15,2013-10-16 17:10:00,
2013-10-16 12:20:00,58.9,51.7,30.09,NNE,19,10.0,10.0,77,0.00,,,0.37,Wunderground v.1.15,2013-10-16 17:20:00,
2013-10-16 12:30:00,58.7,51.2,30.09,NE,41,11.0,14.0,76,0.00,,,0.37,Wunderground v.1.15,2013-10-16 17:30:00,
2013-10-16 12:40:00,58.7,51.5,30.09,NNE,31,9.0,9.0,77,0.00,,,0.37,Wunderground v.1.15,2013-10-16 17:40:00,
2013-10-16 12:50:00,59.1,52.2,30.08,NNE,22,10.0,10.0,78,0.00,,,0.37,Wunderground v.1.15,2013-10-16 17:50:00,
2013-10-16 13:00:00,59.1,51.5,30.08,NE,44,7.0,8.0,76,0.00,,,0.37,Wunderground v.1.15,2013-10-16 18:00:00,
2013-10-16 13:10:00,59.4,51.1,30.08,NNE,18,4.0,4.0,74,0.00,,,0.37,Wunderground v.1.15,2013-10-16 18:10:00,
2013-10-16 13:20:00,59.4,51.5,30.08,ENE,61,4.0,5.0,75,0.00,,,0.37,Wunderground v.1.15,2013-10-16 18:20:00,
2013-10-16 13:30:00,60.0,51.7,30.08,NNE,19,5.0,8.0,74,0.00,,,0.37,Wunderground v.1.15,2013-10-16 18:30:00,
2013-10-16 13:40:00,60.5,52.2,30.07,NNE,27,5.0,5.0,74,0.00,,,0.37,Wunderground v.1.15,2013-10-16 18:40:00,
2013-10-16 13:50:00,61.0,51.9,30.06,NE,47,7.0,7.0,72,0.00,,,0.37,Wunderground v.1.15,2013-10-16 18:50:00,
2013-10-16 14:00:00,61.3,52.6,30.05,NNE,18,7.0,11.0,73,0.00,,,0.37,Wunderground v.1.15,2013-10-16 19:00:00,
2013-10-16 14:10:00,61.8,52.7,30.05,NNE,30,5.0,5.0,72,0.00,,,0.37,Wunderground v.1.15,2013-10-16 19:10:00,
2013-10-16 14:20:00,62.1,51.8,30.04,North,5,1.0,1.0,69,0.00,,,0.37,Wunderground v.1.15,2013-10-16 19:20:00,
2013-10-16 14:30:00,62.7,52.0,30.04,NNE,18,1.0,1.0,68,0.00,,,0.37,Wunderground v.1.15,2013-10-16 19:30:00,
2013-10-16 14:40:00,62.5,52.2,30.04,NNE,25,4.0,4.0,69,0.00,,,0.37,Wunderground v.1.15,2013-10-16 19:40:00,
2013-10-16 14:50:00,62.9,53.0,30.03,NNW,344,2.0,5.0,70,0.00,,,0.37,Wunderground v.1.15,2013-10-16 19:50:00,
2013-10-16 15:00:00,63.4,53.4,30.02,NNE,26,1.0,1.0,70,0.00,,,0.37,Wunderground v.1.15,2013-10-16 20:00:00,
2013-10-16 15:10:00,63.7,52.5,30.02,NNW,334,2.0,2.0,67,0.00,,,0.37,Wunderground v.1.15,2013-10-16 20:10:00,
2013-10-16 15:20:00,63.5,52.7,30.02,North,360,2.0,2.0,68,0.00,,,0.37,Wunderground v.1.15,2013-10-16 20:20:00,
2013-10-16 15:30:00,63.7,52.5,30.02,North,360,2.0,2.0,67,0.00,,,0.37,Wunderground v.1.15,2013-10-16 20:30:00,
2013-10-16 15:40:00,63.8,52.6,30.02,North,355,1.0,1.0,67,0.00,,,0.37,Wunderground v.1.15,2013-10-16 20:40:00,
2013-10-16 15:50:00,63.8,53.0,30.02,NE,34,2.0,2.0,68,0.00,,,0.37,Wunderground v.1.15,2013-10-16 20:50:00,
2013-10-16 16:00:00,64.0,52.8,30.02,North,355,1.0,1.0,67,0.00,,,0.37,Wunderground v.1.15,2013-10-16 21:00:00,
2013-10-16 16:10:00,64.1,52.9,30.02,North,360,1.0,1.0,67,0.00,,,0.37,Wunderground v.1.15,2013-10-16 21:10:00,
2013-10-16 16:20:00,64.1,52.9,30.02,NNE,14,1.0,2.0,67,0.00,,,0.37,Wunderground v.1.15,2013-10-16 21:20:00,
2013-10-16 16:30:00,64.5,53.3,30.02,North,355,2.0,2.0,67,0.00,,,0.37,Wunderground v.1.15,2013-10-16 21:30:00,
2013-10-16 16:40:00,64.4,52.8,30.02,North,10,2.0,2.0,66,0.00,,,0.37,Wunderground v.1.15,2013-10-16 21:40:00,
2013-10-16 16:50:00,64.3,53.1,30.02,North,5,1.0,1.0,67,0.00,,,0.37,Wunderground v.1.15,2013-10-16 21:50:00,
2013-10-16 17:00:00,63.9,52.7,30.02,North,355,2.0,7.0,67,0.00,,,0.37,Wunderground v.1.15,2013-10-16 22:00:00,
2013-10-16 17:10:00,63.6,52.4,30.02,NNW,346,2.0,2.0,67,0.00,,,0.37,Wunderground v.1.15,2013-10-16 22:10:00,
2013-10-16 17:20:00,63.5,52.7,30.02,NNW,343,1.0,1.0,68,0.00,,,0.37,Wunderground v.1.15,2013-10-16 22:20:00,
2013-10-16 17:30:00,63.4,52.2,30.01,North,355,1.0,4.0,67,0.00,,,0.37,Wunderground v.1.15,2013-10-16 22:30:00,
2013-10-16 17:40:00,63.2,52.5,30.02,North,355,1.0,2.0,68,0.00,,,0.37,Wunderground v.1.15,2013-10-16 22:40:00,
2013-10-16 17:50:00,62.9,51.4,30.02,North,360,3.0,3.0,66,0.00,,,0.37,Wunderground v.1.15,2013-10-16 22:50:00,
2013-10-16 18:00:00,62.9,51.8,30.01,North,360,1.0,1.0,67,0.00,,,0.37,Wunderground v.1.15,2013-10-16 23:00:00,
2013-10-16 18:10:00,62.9,51.4,30.02,North,360,1.0,2.0,66,0.00,,,0.37,Wunderground v.1.15,2013-10-16 23:10:00,
2013-10-16 18:20:00,62.7,52.0,30.02,North,360,1.0,1.0,68,0.00,,,0.37,Wunderground v.1.15,2013-10-16 23:20:00,
2013-10-16 18:30:00,62.6,51.5,30.02,North,5,1.0,1.0,67,0.00,,,0.37,Wunderground v.1.15,2013-10-16 23:30:00,
2013-10-16 18:40:00,62.4,51.7,30.02,North,360,1.0,2.0,68,0.00,,,0.37,Wunderground v.1.15,2013-10-16 23:40:00,
2013-10-16 18:50:00,62.1,51.4,30.02,North,355,2.0,2.0,68,0.00,,,0.37,Wunderground v.1.15,2013-10-16 23:50:00,
2013-10-16 19:00:00,61.8,51.1,30.02,North,360,2.0,4.0,68,0.00,,,0.37,Wunderground v.1.15,2013-10-17 00:00:00,
2013-10-16 19:10:00,61.5,51.2,30.03,North,360,2.0,2.0,69,0.00,,,0.37,Wunderground v.1.15,2013-10-17 00:10:00,
2013-10-16 19:20:00,61.2,50.2,30.03,North,5,2.0,2.0,67,0.00,,,0.37,Wunderground v.1.15,2013-10-17 00:20:00,
2013-10-16 19:30:00,60.9,49.9,30.03,North,5,2.0,6.0,67,0.00,,,0.37,Wunderground v.1.15,2013-10-17 00:30:00,
2013-10-16 19:40:00,60.7,49.7,30.03,North,5,3.0,4.0,67,0.00,,,0.37,Wunderground v.1.15,2013-10-17 00:40:00,
2013-10-16 19:50:00,60.5,49.9,30.03,North,5,2.0,2.0,68,0.00,,,0.37,Wunderground v.1.15,2013-10-17 00:50:00,
2013-10-16 20:00:00,60.3,50.1,30.03,North,5,1.0,1.0,69,0.00,,,0.37,Wunderground v.1.15,2013-10-17 01:00:00,
2013-10-16 20:10:00,60.1,50.3,30.04,North,5,1.0,1.0,70,0.00,,,0.37,Wunderground v.1.15,2013-10-17 01:10:00,
2013-10-16 20:20:00,59.9,50.1,30.04,North,5,2.0,2.0,70,0.00,,,0.37,Wunderground v.1.15,2013-10-17 01:20:00,
2013-10-16 20:30:00,59.8,49.6,30.05,North,5,1.0,1.0,69,0.00,,,0.37,Wunderground v.1.15,2013-10-17 01:30:00,
2013-10-16 20:40:00,59.6,49.4,30.06,North,5,0.0,1.0,69,0.00,,,0.37,Wunderground v.1.15,2013-10-17 01:40:00,
2013-10-16 20:50:00,59.2,49.4,30.06,North,5,1.0,1.0,70,0.00,,,0.37,Wunderground v.1.15,2013-10-17 01:50:00,
2013-10-16 21:00:00,58.8,49.4,30.07,North,5,0.0,1.0,71,0.00,,,0.37,Wunderground v.1.15,2013-10-17 02:00:00,
2013-10-16 21:10:00,58.4,49.4,30.07,North,5,0.0,1.0,72,0.00,,,0.37,Wunderground v.1.15,2013-10-17 02:10:00,
2013-10-16 21:20:00,58.0,49.8,30.07,North,5,0.0,1.0,74,0.00,,,0.37,Wunderground v.1.15,2013-10-17 02:20:00,
2013-10-16 21:30:00,57.8,49.9,30.07,North,5,0.0,1.0,75,0.00,,,0.37,Wunderground v.1.15,2013-10-17 02:30:00,
2013-10-16 21:40:00,57.6,50.1,30.08,North,5,0.0,1.0,76,0.00,,,0.37,Wunderground v.1.15,2013-10-17 02:40:00,
2013-10-16 21:50:00,57.5,50.3,30.08,North,5,0.0,1.0,77,0.00,,,0.37,Wunderground v.1.15,2013-10-17 02:50:00,
2013-10-16 22:00:00,57.5,50.0,30.09,North,5,0.0,1.0,76,0.00,,,0.37,Wunderground v.1.15,2013-10-17 03:00:00,
2013-10-16 22:10:00,57.5,50.0,30.09,North,5,1.0,1.0,76,0.00,,,0.37,Wunderground v.1.15,2013-10-17 03:10:00,
2013-10-16 22:20:00,57.4,49.9,30.09,North,5,1.0,2.0,76,0.00,,,0.37,Wunderground v.1.15,2013-10-17 03:20:00,
2013-10-16 22:30:00,57.3,49.4,30.09,North,5,1.0,1.0,75,0.00,,,0.37,Wunderground v.1.15,2013-10-17 03:30:00,
2013-10-16 22:40:00,57.3,49.4,30.09,North,5,0.0,1.0,75,0.00,,,0.37,Wunderground v.1.15,2013-10-17 03:40:00,
2013-10-16 22:50:00,57.3,49.4,30.09,North,5,0.0,1.0,75,0.00,,,0.37,Wunderground v.1.15,2013-10-17 03:50:00,
2013-10-16 23:00:00,57.1,48.9,30.09,North,5,1.0,1.0,74,0.00,,,0.37,Wunderground v.1.15,2013-10-17 04:00:00,
2013-10-16 23:10:00,56.6,49.1,30.09,North,5,0.0,1.0,76,0.00,,,0.37,Wunderground v.1.15,2013-10-17 04:10:00,
2013-10-16 23:20:00,56.1,49.0,30.09,North,5,0.0,1.0,77,0.00,,,0.37,Wunderground v.1.15,2013-10-17 04:20:00,
2013-10-16 23:30:00,55.6,48.8,30.09,North,5,0.0,1.0,78,0.00,,,0.37,Wunderground v.1.15,2013-10-17 04:30:00,
2013-10-16 23:40:00,55.1,48.7,30.09,North,5,0.0,1.0,79,0.00,,,0.37,Wunderground v.1.15,2013-10-17 04:40:00,
2013-10-16 23:50:00,54.8,48.4,30.09,North,5,0.0,1.0,79,0.00,,,0.37,Wunderground v.1.15,2013-10-17 04:50:00,